sensor_id;sensor_type;location;lat;lon;timestamp;P1;durP1;ratioP1;P2;durP2;ratioP2
16727;SDS011;8482;54.396;18.590;2023-05-16T00:00:22;3.22;;;2.05;;
16727;SDS011;8482;54.396;18.590;2023-05-16T00:02:52;3.00;;;1.92;;
16727;SDS011;8482;54.396;18.590;2023-05-16T00:05:18;3.00;;;2.13;;
16727;SDS011;8482;54.396;18.590;2023-05-16T00:07:44;3.35;;;2.30;;
16727;SDS011;8482;54.396;18.590;2023-05-16T00:10:11;4.22;;;2.40;;
16727;SDS011;8482;54.396;18.590;2023-05-16T00:16:06;3.08;;;2.20;;
16727;SDS011;8482;54.396;18.590;2023-05-16T00:18:32;3.53;;;2.40;;
16727;SDS011;8482;54.396;18.590;2023-05-16T00:21:02;3.95;;;2.50;;
16727;SDS011;8482;54.396;18.590;2023-05-16T00:23:29;3.22;;;2.20;;
16727;SDS011;8482;54.396;18.590;2023-05-16T00:25:55;4.00;;;2.53;;
16727;SDS011;8482;54.396;18.590;2023-05-16T00:28:21;3.00;;;2.10;;
16727;SDS011;8482;54.396;18.590;2023-05-16T00:30:47;3.60;;;2.33;;
16727;SDS011;8482;54.396;18.590;2023-05-16T00:33:13;3.33;;;2.40;;
16727;SDS011;8482;54.396;18.590;2023-05-16T00:35:39;4.28;;;2.70;;
16727;SDS011;8482;54.396;18.590;2023-05-16T00:38:05;4.28;;;2.40;;
16727;SDS011;8482;54.396;18.590;2023-05-16T00:40:31;4.57;;;2.38;;
16727;SDS011;8482;54.396;18.590;2023-05-16T00:42:57;4.28;;;2.60;;
16727;SDS011;8482;54.396;18.590;2023-05-16T00:45:23;3.58;;;2.30;;
16727;SDS011;8482;54.396;18.590;2023-05-16T00:47:49;3.47;;;2.20;;
16727;SDS011;8482;54.396;18.590;2023-05-16T00:50:16;3.05;;;2.17;;
16727;SDS011;8482;54.396;18.590;2023-05-16T00:52:43;3.75;;;2.55;;
16727;SDS011;8482;54.396;18.590;2023-05-16T00:55:09;3.88;;;2.33;;
16727;SDS011;8482;54.396;18.590;2023-05-16T00:57:38;3.60;;;2.35;;
16727;SDS011;8482;54.396;18.590;2023-05-16T01:00:05;3.90;;;2.47;;
16727;SDS011;8482;54.396;18.590;2023-05-16T01:02:36;3.97;;;2.42;;
16727;SDS011;8482;54.396;18.590;2023-05-16T01:05:03;3.90;;;2.50;;
16727;SDS011;8482;54.396;18.590;2023-05-16T01:07:29;4.10;;;2.30;;
16727;SDS011;8482;54.396;18.590;2023-05-16T01:09:56;4.28;;;2.63;;
16727;SDS011;8482;54.396;18.590;2023-05-16T01:12:26;3.65;;;2.53;;
16727;SDS011;8482;54.396;18.590;2023-05-16T01:15:07;4.47;;;2.30;;
16727;SDS011;8482;54.396;18.590;2023-05-16T01:20:48;3.30;;;2.30;;
16727;SDS011;8482;54.396;18.590;2023-05-16T01:26:19;4.00;;;2.47;;
16727;SDS011;8482;54.396;18.590;2023-05-16T01:28:51;3.92;;;2.65;;
16727;SDS011;8482;54.396;18.590;2023-05-16T01:31:18;3.65;;;2.53;;
16727;SDS011;8482;54.396;18.590;2023-05-16T01:33:45;4.32;;;2.80;;
16727;SDS011;8482;54.396;18.590;2023-05-16T01:36:25;4.10;;;2.63;;
16727;SDS011;8482;54.396;18.590;2023-05-16T01:42:32;3.63;;;2.47;;
16727;SDS011;8482;54.396;18.590;2023-05-16T01:45:15;4.82;;;2.92;;
16727;SDS011;8482;54.396;18.590;2023-05-16T01:48:07;4.80;;;2.88;;
16727;SDS011;8482;54.396;18.590;2023-05-16T01:50:59;3.72;;;2.65;;
16727;SDS011;8482;54.396;18.590;2023-05-16T01:53:28;4.13;;;2.85;;
16727;SDS011;8482;54.396;18.590;2023-05-16T01:56:02;4.07;;;2.78;;
16727;SDS011;8482;54.396;18.590;2023-05-16T01:58:35;4.72;;;3.25;;
16727;SDS011;8482;54.396;18.590;2023-05-16T02:01:02;5.15;;;3.33;;
16727;SDS011;8482;54.396;18.590;2023-05-16T02:03:30;4.60;;;2.80;;
16727;SDS011;8482;54.396;18.590;2023-05-16T02:05:56;4.25;;;2.92;;
16727;SDS011;8482;54.396;18.590;2023-05-16T02:08:23;4.57;;;3.17;;
16727;SDS011;8482;54.396;18.590;2023-05-16T02:10:50;4.93;;;3.47;;
16727;SDS011;8482;54.396;18.590;2023-05-16T02:13:17;4.70;;;3.30;;
16727;SDS011;8482;54.396;18.590;2023-05-16T02:15:43;4.85;;;3.42;;
16727;SDS011;8482;54.396;18.590;2023-05-16T02:18:09;4.95;;;3.83;;
16727;SDS011;8482;54.396;18.590;2023-05-16T02:20:36;5.35;;;3.20;;
16727;SDS011;8482;54.396;18.590;2023-05-16T02:23:03;4.80;;;3.38;;
16727;SDS011;8482;54.396;18.590;2023-05-16T02:25:29;4.85;;;3.55;;
16727;SDS011;8482;54.396;18.590;2023-05-16T02:27:55;5.88;;;3.70;;
16727;SDS011;8482;54.396;18.590;2023-05-16T02:30:21;6.05;;;3.90;;
16727;SDS011;8482;54.396;18.590;2023-05-16T02:32:46;5.35;;;3.80;;
16727;SDS011;8482;54.396;18.590;2023-05-16T02:35:13;6.00;;;4.13;;
16727;SDS011;8482;54.396;18.590;2023-05-16T02:37:39;4.43;;;3.17;;
16727;SDS011;8482;54.396;18.590;2023-05-16T02:40:06;5.60;;;3.50;;
16727;SDS011;8482;54.396;18.590;2023-05-16T02:42:33;4.60;;;3.50;;
16727;SDS011;8482;54.396;18.590;2023-05-16T02:44:59;5.13;;;3.38;;
16727;SDS011;8482;54.396;18.590;2023-05-16T02:47:24;5.57;;;3.75;;
16727;SDS011;8482;54.396;18.590;2023-05-16T02:49:50;5.70;;;4.05;;
16727;SDS011;8482;54.396;18.590;2023-05-16T02:52:16;4.75;;;3.38;;
16727;SDS011;8482;54.396;18.590;2023-05-16T02:54:43;5.13;;;3.65;;
16727;SDS011;8482;54.396;18.590;2023-05-16T02:57:09;4.78;;;3.38;;
16727;SDS011;8482;54.396;18.590;2023-05-16T02:59:35;5.93;;;4.00;;
16727;SDS011;8482;54.396;18.590;2023-05-16T03:02:01;5.28;;;3.60;;
16727;SDS011;8482;54.396;18.590;2023-05-16T03:04:26;6.15;;;4.03;;
16727;SDS011;8482;54.396;18.590;2023-05-16T03:06:52;5.22;;;3.90;;
16727;SDS011;8482;54.396;18.590;2023-05-16T03:09:18;5.57;;;4.13;;
16727;SDS011;8482;54.396;18.590;2023-05-16T03:11:44;5.13;;;3.70;;
16727;SDS011;8482;54.396;18.590;2023-05-16T03:14:10;6.07;;;4.10;;
16727;SDS011;8482;54.396;18.590;2023-05-16T03:16:37;6.40;;;4.22;;
16727;SDS011;8482;54.396;18.590;2023-05-16T03:19:04;5.65;;;4.07;;
16727;SDS011;8482;54.396;18.590;2023-05-16T03:21:29;6.03;;;4.35;;
16727;SDS011;8482;54.396;18.590;2023-05-16T03:23:56;5.78;;;4.45;;
16727;SDS011;8482;54.396;18.590;2023-05-16T03:26:22;5.35;;;4.00;;
16727;SDS011;8482;54.396;18.590;2023-05-16T03:28:51;6.82;;;4.97;;
16727;SDS011;8482;54.396;18.590;2023-05-16T03:31:17;5.95;;;4.30;;
16727;SDS011;8482;54.396;18.590;2023-05-16T03:33:43;6.47;;;4.45;;
16727;SDS011;8482;54.396;18.590;2023-05-16T03:36:09;6.38;;;4.40;;
16727;SDS011;8482;54.396;18.590;2023-05-16T03:38:35;6.28;;;4.63;;
16727;SDS011;8482;54.396;18.590;2023-05-16T03:41:01;6.68;;;4.35;;
16727;SDS011;8482;54.396;18.590;2023-05-16T03:43:27;5.75;;;3.88;;
16727;SDS011;8482;54.396;18.590;2023-05-16T03:45:53;6.65;;;4.13;;
16727;SDS011;8482;54.396;18.590;2023-05-16T03:48:20;5.05;;;3.80;;
16727;SDS011;8482;54.396;18.590;2023-05-16T03:50:46;4.57;;;3.22;;
16727;SDS011;8482;54.396;18.590;2023-05-16T03:53:12;4.65;;;2.65;;
16727;SDS011;8482;54.396;18.590;2023-05-16T03:55:38;3.60;;;2.38;;
16727;SDS011;8482;54.396;18.590;2023-05-16T03:58:03;3.15;;;2.10;;
16727;SDS011;8482;54.396;18.590;2023-05-16T04:00:29;2.47;;;1.80;;
16727;SDS011;8482;54.396;18.590;2023-05-16T04:02:55;2.85;;;1.70;;
16727;SDS011;8482;54.396;18.590;2023-05-16T04:05:21;1.63;;;1.50;;
16727;SDS011;8482;54.396;18.590;2023-05-16T04:07:47;2.63;;;1.63;;
16727;SDS011;8482;54.396;18.590;2023-05-16T04:10:13;1.48;;;1.20;;
16727;SDS011;8482;54.396;18.590;2023-05-16T04:12:39;2.10;;;1.60;;
16727;SDS011;8482;54.396;18.590;2023-05-16T04:15:05;1.90;;;1.70;;
16727;SDS011;8482;54.396;18.590;2023-05-16T04:17:31;1.70;;;1.33;;
16727;SDS011;8482;54.396;18.590;2023-05-16T04:19:58;1.50;;;1.40;;
16727;SDS011;8482;54.396;18.590;2023-05-16T04:22:25;2.03;;;1.30;;
16727;SDS011;8482;54.396;18.590;2023-05-16T04:24:51;1.95;;;1.52;;
16727;SDS011;8482;54.396;18.590;2023-05-16T04:27:17;1.73;;;1.40;;
16727;SDS011;8482;54.396;18.590;2023-05-16T04:29:43;2.47;;;1.45;;
16727;SDS011;8482;54.396;18.590;2023-05-16T04:32:09;1.90;;;1.20;;
16727;SDS011;8482;54.396;18.590;2023-05-16T04:34:35;3.05;;;1.60;;
16727;SDS011;8482;54.396;18.590;2023-05-16T04:37:02;1.35;;;1.17;;
16727;SDS011;8482;54.396;18.590;2023-05-16T04:39:29;2.10;;;1.10;;
16727;SDS011;8482;54.396;18.590;2023-05-16T04:41:56;1.00;;;0.90;;
16727;SDS011;8482;54.396;18.590;2023-05-16T04:44:23;1.00;;;0.90;;
16727;SDS011;8482;54.396;18.590;2023-05-16T04:46:50;1.33;;;0.80;;
16727;SDS011;8482;54.396;18.590;2023-05-16T04:49:19;0.80;;;0.80;;
16727;SDS011;8482;54.396;18.590;2023-05-16T04:51:45;1.35;;;0.90;;
16727;SDS011;8482;54.396;18.590;2023-05-16T04:54:12;0.95;;;0.70;;
16727;SDS011;8482;54.396;18.590;2023-05-16T04:56:39;0.60;;;0.60;;
16727;SDS011;8482;54.396;18.590;2023-05-16T04:59:05;0.85;;;0.60;;
16727;SDS011;8482;54.396;18.590;2023-05-16T05:01:31;1.17;;;0.68;;
16727;SDS011;8482;54.396;18.590;2023-05-16T05:03:57;1.00;;;0.77;;
16727;SDS011;8482;54.396;18.590;2023-05-16T05:06:22;1.85;;;0.85;;
16727;SDS011;8482;54.396;18.590;2023-05-16T05:08:48;0.73;;;0.73;;
16727;SDS011;8482;54.396;18.590;2023-05-16T05:11:14;1.55;;;0.93;;
16727;SDS011;8482;54.396;18.590;2023-05-16T05:13:40;1.45;;;1.27;;
16727;SDS011;8482;54.396;18.590;2023-05-16T05:16:06;1.02;;;0.93;;
16727;SDS011;8482;54.396;18.590;2023-05-16T05:18:31;1.08;;;0.93;;
16727;SDS011;8482;54.396;18.590;2023-05-16T05:20:58;1.10;;;1.00;;
16727;SDS011;8482;54.396;18.590;2023-05-16T05:23:24;0.93;;;0.90;;
16727;SDS011;8482;54.396;18.590;2023-05-16T05:25:50;0.90;;;0.88;;
16727;SDS011;8482;54.396;18.590;2023-05-16T05:28:16;1.00;;;0.80;;
16727;SDS011;8482;54.396;18.590;2023-05-16T05:30:42;1.00;;;0.95;;
16727;SDS011;8482;54.396;18.590;2023-05-16T05:33:09;1.40;;;0.90;;
16727;SDS011;8482;54.396;18.590;2023-05-16T05:35:40;1.30;;;0.95;;
16727;SDS011;8482;54.396;18.590;2023-05-16T05:38:06;2.40;;;0.90;;
16727;SDS011;8482;54.396;18.590;2023-05-16T05:40:32;0.82;;;0.82;;
16727;SDS011;8482;54.396;18.590;2023-05-16T05:42:58;1.10;;;0.90;;
16727;SDS011;8482;54.396;18.590;2023-05-16T05:45:23;1.23;;;1.00;;
16727;SDS011;8482;54.396;18.590;2023-05-16T05:47:49;1.42;;;0.98;;
16727;SDS011;8482;54.396;18.590;2023-05-16T05:50:15;1.60;;;1.00;;
16727;SDS011;8482;54.396;18.590;2023-05-16T05:52:41;1.20;;;0.95;;
16727;SDS011;8482;54.396;18.590;2023-05-16T05:55:07;2.08;;;0.90;;
16727;SDS011;8482;54.396;18.590;2023-05-16T05:57:33;1.63;;;1.13;;
16727;SDS011;8482;54.396;18.590;2023-05-16T05:59:59;1.67;;;1.08;;
16727;SDS011;8482;54.396;18.590;2023-05-16T06:02:25;1.73;;;1.25;;
16727;SDS011;8482;54.396;18.590;2023-05-16T06:04:51;1.48;;;1.10;;
16727;SDS011;8482;54.396;18.590;2023-05-16T06:07:17;2.22;;;1.30;;
16727;SDS011;8482;54.396;18.590;2023-05-16T06:09:43;1.30;;;1.20;;
16727;SDS011;8482;54.396;18.590;2023-05-16T06:12:09;2.33;;;1.40;;
16727;SDS011;8482;54.396;18.590;2023-05-16T06:14:35;2.05;;;1.20;;
16727;SDS011;8482;54.396;18.590;2023-05-16T06:17:00;2.60;;;1.45;;
16727;SDS011;8482;54.396;18.590;2023-05-16T06:19:26;2.53;;;1.30;;
16727;SDS011;8482;54.396;18.590;2023-05-16T06:21:52;1.55;;;1.30;;
16727;SDS011;8482;54.396;18.590;2023-05-16T06:24:18;1.42;;;1.20;;
16727;SDS011;8482;54.396;18.590;2023-05-16T06:26:44;1.73;;;1.10;;
16727;SDS011;8482;54.396;18.590;2023-05-16T06:29:13;2.65;;;1.23;;
16727;SDS011;8482;54.396;18.590;2023-05-16T06:31:39;1.65;;;1.20;;
16727;SDS011;8482;54.396;18.590;2023-05-16T06:34:05;2.15;;;1.10;;
16727;SDS011;8482;54.396;18.590;2023-05-16T06:36:31;1.83;;;1.20;;
16727;SDS011;8482;54.396;18.590;2023-05-16T06:38:57;3.30;;;1.20;;
16727;SDS011;8482;54.396;18.590;2023-05-16T06:41:23;1.50;;;1.20;;
16727;SDS011;8482;54.396;18.590;2023-05-16T06:43:48;2.05;;;1.25;;
16727;SDS011;8482;54.396;18.590;2023-05-16T06:46:14;1.25;;;1.02;;
16727;SDS011;8482;54.396;18.590;2023-05-16T06:48:40;2.28;;;1.13;;
16727;SDS011;8482;54.396;18.590;2023-05-16T06:51:06;1.63;;;1.10;;
16727;SDS011;8482;54.396;18.590;2023-05-16T06:53:32;1.30;;;1.10;;
16727;SDS011;8482;54.396;18.590;2023-05-16T06:55:57;1.48;;;1.13;;
16727;SDS011;8482;54.396;18.590;2023-05-16T06:58:23;2.25;;;1.58;;
16727;SDS011;8482;54.396;18.590;2023-05-16T07:00:49;1.85;;;1.30;;
16727;SDS011;8482;54.396;18.590;2023-05-16T07:03:15;1.80;;;1.20;;
16727;SDS011;8482;54.396;18.590;2023-05-16T07:05:41;2.30;;;1.55;;
16727;SDS011;8482;54.396;18.590;2023-05-16T07:08:10;1.63;;;1.35;;
16727;SDS011;8482;54.396;18.590;2023-05-16T07:10:36;2.65;;;1.40;;
16727;SDS011;8482;54.396;18.590;2023-05-16T07:13:03;2.50;;;1.50;;
16727;SDS011;8482;54.396;18.590;2023-05-16T07:15:29;2.13;;;1.10;;
16727;SDS011;8482;54.396;18.590;2023-05-16T07:17:55;1.00;;;0.93;;
16727;SDS011;8482;54.396;18.590;2023-05-16T07:20:21;2.67;;;1.30;;
16727;SDS011;8482;54.396;18.590;2023-05-16T07:22:47;1.38;;;0.90;;
16727;SDS011;8482;54.396;18.590;2023-05-16T07:25:13;1.33;;;0.90;;
16727;SDS011;8482;54.396;18.590;2023-05-16T07:27:40;2.47;;;0.82;;
16727;SDS011;8482;54.396;18.590;2023-05-16T07:30:09;0.80;;;0.75;;
16727;SDS011;8482;54.396;18.590;2023-05-16T07:32:38;0.85;;;0.80;;
16727;SDS011;8482;54.396;18.590;2023-05-16T07:35:05;1.10;;;1.00;;
16727;SDS011;8482;54.396;18.590;2023-05-16T07:37:31;1.52;;;1.00;;
16727;SDS011;8482;54.396;18.590;2023-05-16T07:39:57;1.02;;;0.88;;
16727;SDS011;8482;54.396;18.590;2023-05-16T07:42:23;0.98;;;0.88;;
16727;SDS011;8482;54.396;18.590;2023-05-16T07:44:49;1.55;;;1.10;;
16727;SDS011;8482;54.396;18.590;2023-05-16T07:47:15;1.70;;;0.95;;
16727;SDS011;8482;54.396;18.590;2023-05-16T07:49:41;2.05;;;1.00;;
16727;SDS011;8482;54.396;18.590;2023-05-16T07:52:06;2.25;;;1.13;;
16727;SDS011;8482;54.396;18.590;2023-05-16T07:54:33;1.38;;;1.20;;
16727;SDS011;8482;54.396;18.590;2023-05-16T07:57:00;3.05;;;1.90;;
16727;SDS011;8482;54.396;18.590;2023-05-16T07:59:27;4.05;;;2.33;;
16727;SDS011;8482;54.396;18.590;2023-05-16T08:01:53;4.40;;;2.47;;
16727;SDS011;8482;54.396;18.590;2023-05-16T08:04:20;5.50;;;3.10;;
16727;SDS011;8482;54.396;18.590;2023-05-16T08:06:46;4.22;;;2.90;;
16727;SDS011;8482;54.396;18.590;2023-05-16T08:09:12;4.25;;;2.88;;
16727;SDS011;8482;54.396;18.590;2023-05-16T08:11:37;4.50;;;2.90;;
16727;SDS011;8482;54.396;18.590;2023-05-16T08:14:09;5.35;;;2.83;;
16727;SDS011;8482;54.396;18.590;2023-05-16T08:16:35;5.88;;;2.90;;
16727;SDS011;8482;54.396;18.590;2023-05-16T08:19:01;4.88;;;3.10;;
16727;SDS011;8482;54.396;18.590;2023-05-16T08:21:27;4.22;;;2.72;;
16727;SDS011;8482;54.396;18.590;2023-05-16T08:23:53;4.45;;;2.50;;
16727;SDS011;8482;54.396;18.590;2023-05-16T08:26:19;4.57;;;2.80;;
16727;SDS011;8482;54.396;18.590;2023-05-16T08:28:46;3.38;;;2.40;;
16727;SDS011;8482;54.396;18.590;2023-05-16T08:31:11;3.50;;;2.30;;
16727;SDS011;8482;54.396;18.590;2023-05-16T08:33:37;4.63;;;2.55;;
16727;SDS011;8482;54.396;18.590;2023-05-16T08:36:03;4.00;;;2.22;;
16727;SDS011;8482;54.396;18.590;2023-05-16T08:38:30;4.47;;;2.45;;
16727;SDS011;8482;54.396;18.590;2023-05-16T08:40:56;3.35;;;2.28;;
16727;SDS011;8482;54.396;18.590;2023-05-16T08:43:22;3.47;;;2.25;;
16727;SDS011;8482;54.396;18.590;2023-05-16T08:45:48;3.97;;;2.28;;
16727;SDS011;8482;54.396;18.590;2023-05-16T08:48:14;3.95;;;2.25;;
16727;SDS011;8482;54.396;18.590;2023-05-16T08:50:41;3.78;;;2.20;;
16727;SDS011;8482;54.396;18.590;2023-05-16T08:53:08;2.55;;;1.88;;
16727;SDS011;8482;54.396;18.590;2023-05-16T08:55:36;3.05;;;1.98;;
16727;SDS011;8482;54.396;18.590;2023-05-16T08:58:03;2.67;;;2.08;;
16727;SDS011;8482;54.396;18.590;2023-05-16T09:00:29;1.88;;;1.60;;
16727;SDS011;8482;54.396;18.590;2023-05-16T09:02:55;3.15;;;1.80;;
16727;SDS011;8482;54.396;18.590;2023-05-16T09:05:22;2.47;;;1.67;;
16727;SDS011;8482;54.396;18.590;2023-05-16T09:07:49;2.05;;;1.65;;
16727;SDS011;8482;54.396;18.590;2023-05-16T09:10:15;2.30;;;1.80;;
16727;SDS011;8482;54.396;18.590;2023-05-16T09:12:41;2.88;;;1.80;;
16727;SDS011;8482;54.396;18.590;2023-05-16T09:15:08;2.92;;;1.70;;
16727;SDS011;8482;54.396;18.590;2023-05-16T09:20:23;3.40;;;1.83;;
16727;SDS011;8482;54.396;18.590;2023-05-16T09:25:22;2.70;;;1.70;;
16727;SDS011;8482;54.396;18.590;2023-05-16T09:27:53;2.80;;;1.70;;
16727;SDS011;8482;54.396;18.590;2023-05-16T09:30:28;2.03;;;1.75;;
16727;SDS011;8482;54.396;18.590;2023-05-16T09:32:58;3.53;;;1.45;;
16727;SDS011;8482;54.396;18.590;2023-05-16T09:35:25;2.42;;;1.55;;
16727;SDS011;8482;54.396;18.590;2023-05-16T09:37:51;2.53;;;1.63;;
16727;SDS011;8482;54.396;18.590;2023-05-16T09:40:21;1.75;;;1.40;;
16727;SDS011;8482;54.396;18.590;2023-05-16T09:43:08;2.47;;;1.35;;
16727;SDS011;8482;54.396;18.590;2023-05-16T09:45:34;1.90;;;1.50;;
16727;SDS011;8482;54.396;18.590;2023-05-16T09:48:02;2.60;;;1.63;;
16727;SDS011;8482;54.396;18.590;2023-05-16T09:50:33;3.13;;;1.70;;
16727;SDS011;8482;54.396;18.590;2023-05-16T09:53:01;2.08;;;1.40;;
16727;SDS011;8482;54.396;18.590;2023-05-16T09:55:29;3.45;;;1.80;;
16727;SDS011;8482;54.396;18.590;2023-05-16T09:57:56;2.53;;;1.77;;
16727;SDS011;8482;54.396;18.590;2023-05-16T10:00:22;2.72;;;1.85;;
16727;SDS011;8482;54.396;18.590;2023-05-16T10:02:58;2.83;;;1.85;;
16727;SDS011;8482;54.396;18.590;2023-05-16T10:05:27;4.07;;;2.10;;
16727;SDS011;8482;54.396;18.590;2023-05-16T10:07:56;3.38;;;1.55;;
16727;SDS011;8482;54.396;18.590;2023-05-16T10:10:23;2.95;;;1.77;;
16727;SDS011;8482;54.396;18.590;2023-05-16T10:12:50;2.58;;;1.83;;
16727;SDS011;8482;54.396;18.590;2023-05-16T10:15:17;2.40;;;1.75;;
16727;SDS011;8482;54.396;18.590;2023-05-16T10:17:47;3.28;;;2.13;;
16727;SDS011;8482;54.396;18.590;2023-05-16T10:20:17;2.58;;;1.75;;
16727;SDS011;8482;54.396;18.590;2023-05-16T10:22:45;2.50;;;1.83;;
16727;SDS011;8482;54.396;18.590;2023-05-16T10:25:22;3.90;;;2.35;;
16727;SDS011;8482;54.396;18.590;2023-05-16T10:27:53;3.83;;;2.40;;
16727;SDS011;8482;54.396;18.590;2023-05-16T10:30:20;2.95;;;1.95;;
16727;SDS011;8482;54.396;18.590;2023-05-16T10:32:46;3.05;;;2.17;;
16727;SDS011;8482;54.396;18.590;2023-05-16T10:35:16;2.75;;;2.08;;
16727;SDS011;8482;54.396;18.590;2023-05-16T10:37:41;3.95;;;2.40;;
16727;SDS011;8482;54.396;18.590;2023-05-16T10:40:08;3.75;;;2.30;;
16727;SDS011;8482;54.396;18.590;2023-05-16T10:42:35;4.22;;;2.95;;
16727;SDS011;8482;54.396;18.590;2023-05-16T10:45:08;4.45;;;2.35;;
16727;SDS011;8482;54.396;18.590;2023-05-16T10:47:54;5.10;;;2.65;;
16727;SDS011;8482;54.396;18.590;2023-05-16T10:50:44;5.28;;;2.72;;
16727;SDS011;8482;54.396;18.590;2023-05-16T11:06:24;4.45;;;2.70;;
16727;SDS011;8482;54.396;18.590;2023-05-16T11:09:03;4.72;;;3.20;;
16727;SDS011;8482;54.396;18.590;2023-05-16T11:12:14;6.10;;;3.95;;
16727;SDS011;8482;54.396;18.590;2023-05-16T11:17:06;6.40;;;4.00;;
16727;SDS011;8482;54.396;18.590;2023-05-16T11:24:48;7.22;;;3.88;;
16727;SDS011;8482;54.396;18.590;2023-05-16T11:32:29;7.57;;;4.22;;
16727;SDS011;8482;54.396;18.590;2023-05-16T11:34:58;7.10;;;4.45;;
16727;SDS011;8482;54.396;18.590;2023-05-16T11:37:26;6.35;;;4.30;;
16727;SDS011;8482;54.396;18.590;2023-05-16T11:39:52;8.70;;;5.10;;
16727;SDS011;8482;54.396;18.590;2023-05-16T11:42:29;9.00;;;5.18;;
16727;SDS011;8482;54.396;18.590;2023-05-16T11:45:08;8.30;;;5.22;;
16727;SDS011;8482;54.396;18.590;2023-05-16T11:47:37;8.80;;;5.28;;
16727;SDS011;8482;54.396;18.590;2023-05-16T11:50:05;8.38;;;5.68;;
16727;SDS011;8482;54.396;18.590;2023-05-16T11:52:36;8.35;;;5.32;;
16727;SDS011;8482;54.396;18.590;2023-05-16T11:55:05;9.68;;;6.10;;
16727;SDS011;8482;54.396;18.590;2023-05-16T11:57:35;10.18;;;5.70;;
16727;SDS011;8482;54.396;18.590;2023-05-16T12:00:18;11.00;;;5.63;;
16727;SDS011;8482;54.396;18.590;2023-05-16T12:02:49;6.95;;;5.50;;
16727;SDS011;8482;54.396;18.590;2023-05-16T12:05:15;10.02;;;6.05;;
16727;SDS011;8482;54.396;18.590;2023-05-16T12:07:43;9.65;;;6.68;;
16727;SDS011;8482;54.396;18.590;2023-05-16T12:10:11;9.63;;;6.53;;
16727;SDS011;8482;54.396;18.590;2023-05-16T12:12:40;9.50;;;7.10;;
16727;SDS011;8482;54.396;18.590;2023-05-16T12:15:10;9.30;;;7.03;;
16727;SDS011;8482;54.396;18.590;2023-05-16T12:17:38;9.13;;;6.30;;
16727;SDS011;8482;54.396;18.590;2023-05-16T12:20:06;11.13;;;7.53;;
16727;SDS011;8482;54.396;18.590;2023-05-16T12:22:42;12.52;;;6.88;;
16727;SDS011;8482;54.396;18.590;2023-05-16T12:28:13;11.25;;;7.10;;
16727;SDS011;8482;54.396;18.590;2023-05-16T12:30:40;10.10;;;6.30;;
16727;SDS011;8482;54.396;18.590;2023-05-16T12:33:09;11.63;;;7.03;;
16727;SDS011;8482;54.396;18.590;2023-05-16T12:35:38;13.18;;;6.55;;
16727;SDS011;8482;54.396;18.590;2023-05-16T12:38:08;11.85;;;6.93;;
16727;SDS011;8482;54.396;18.590;2023-05-16T12:40:36;11.25;;;7.55;;
16727;SDS011;8482;54.396;18.590;2023-05-16T12:43:04;10.45;;;6.57;;
16727;SDS011;8482;54.396;18.590;2023-05-16T12:48:17;9.55;;;5.75;;
16727;SDS011;8482;54.396;18.590;2023-05-16T12:50:43;10.82;;;6.18;;
16727;SDS011;8482;54.396;18.590;2023-05-16T12:53:13;10.40;;;6.55;;
16727;SDS011;8482;54.396;18.590;2023-05-16T12:55:41;10.25;;;6.80;;
16727;SDS011;8482;54.396;18.590;2023-05-16T12:58:08;10.40;;;6.20;;
16727;SDS011;8482;54.396;18.590;2023-05-16T13:00:35;8.43;;;5.32;;
16727;SDS011;8482;54.396;18.590;2023-05-16T13:03:03;9.25;;;5.13;;
16727;SDS011;8482;54.396;18.590;2023-05-16T13:05:30;13.15;;;6.18;;
16727;SDS011;8482;54.396;18.590;2023-05-16T13:07:56;7.35;;;5.05;;
16727;SDS011;8482;54.396;18.590;2023-05-16T13:10:22;9.00;;;5.10;;
16727;SDS011;8482;54.396;18.590;2023-05-16T13:12:49;8.65;;;5.85;;
16727;SDS011;8482;54.396;18.590;2023-05-16T13:15:15;8.38;;;5.00;;
16727;SDS011;8482;54.396;18.590;2023-05-16T13:17:41;10.48;;;5.68;;
16727;SDS011;8482;54.396;18.590;2023-05-16T13:20:12;8.68;;;5.70;;
16727;SDS011;8482;54.396;18.590;2023-05-16T13:22:39;11.70;;;7.10;;
16727;SDS011;8482;54.396;18.590;2023-05-16T13:25:07;10.40;;;6.45;;
16727;SDS011;8482;54.396;18.590;2023-05-16T13:27:34;8.80;;;5.45;;
16727;SDS011;8482;54.396;18.590;2023-05-16T13:30:00;8.85;;;5.78;;
16727;SDS011;8482;54.396;18.590;2023-05-16T13:32:28;8.75;;;6.22;;
16727;SDS011;8482;54.396;18.590;2023-05-16T13:34:54;8.32;;;6.00;;
16727;SDS011;8482;54.396;18.590;2023-05-16T13:37:20;9.43;;;5.72;;
16727;SDS011;8482;54.396;18.590;2023-05-16T13:39:48;9.70;;;6.40;;
16727;SDS011;8482;54.396;18.590;2023-05-16T13:42:14;9.27;;;5.57;;
16727;SDS011;8482;54.396;18.590;2023-05-16T13:44:40;9.75;;;6.43;;
16727;SDS011;8482;54.396;18.590;2023-05-16T13:47:06;12.05;;;7.00;;
16727;SDS011;8482;54.396;18.590;2023-05-16T13:49:32;10.45;;;6.30;;
16727;SDS011;8482;54.396;18.590;2023-05-16T13:51:58;9.00;;;5.88;;
16727;SDS011;8482;54.396;18.590;2023-05-16T13:54:25;10.32;;;6.50;;
16727;SDS011;8482;54.396;18.590;2023-05-16T13:56:51;11.40;;;6.38;;
16727;SDS011;8482;54.396;18.590;2023-05-16T13:59:18;10.88;;;6.82;;
16727;SDS011;8482;54.396;18.590;2023-05-16T14:01:44;8.90;;;6.35;;
16727;SDS011;8482;54.396;18.590;2023-05-16T14:04:10;9.68;;;6.05;;
16727;SDS011;8482;54.396;18.590;2023-05-16T14:06:36;9.90;;;6.55;;
16727;SDS011;8482;54.396;18.590;2023-05-16T14:09:02;10.82;;;6.07;;
16727;SDS011;8482;54.396;18.590;2023-05-16T14:11:28;9.25;;;6.57;;
16727;SDS011;8482;54.396;18.590;2023-05-16T14:13:54;11.18;;;7.13;;
16727;SDS011;8482;54.396;18.590;2023-05-16T14:16:20;9.82;;;6.85;;
16727;SDS011;8482;54.396;18.590;2023-05-16T14:18:46;9.73;;;6.65;;
16727;SDS011;8482;54.396;18.590;2023-05-16T14:21:12;10.65;;;6.70;;
16727;SDS011;8482;54.396;18.590;2023-05-16T14:23:38;8.13;;;5.75;;
16727;SDS011;8482;54.396;18.590;2023-05-16T14:26:04;9.48;;;6.20;;
16727;SDS011;8482;54.396;18.590;2023-05-16T14:28:30;9.27;;;5.47;;
16727;SDS011;8482;54.396;18.590;2023-05-16T14:30:57;9.15;;;5.43;;
16727;SDS011;8482;54.396;18.590;2023-05-16T14:33:23;7.72;;;5.00;;
16727;SDS011;8482;54.396;18.590;2023-05-16T14:35:50;11.30;;;6.55;;
16727;SDS011;8482;54.396;18.590;2023-05-16T14:38:16;9.80;;;5.95;;
16727;SDS011;8482;54.396;18.590;2023-05-16T14:40:42;12.50;;;6.68;;
16727;SDS011;8482;54.396;18.590;2023-05-16T14:43:08;10.18;;;5.43;;
16727;SDS011;8482;54.396;18.590;2023-05-16T14:45:34;10.27;;;6.65;;
16727;SDS011;8482;54.396;18.590;2023-05-16T14:48:07;9.27;;;5.75;;
16727;SDS011;8482;54.396;18.590;2023-05-16T14:50:33;7.82;;;5.10;;
16727;SDS011;8482;54.396;18.590;2023-05-16T14:52:59;10.85;;;6.00;;
16727;SDS011;8482;54.396;18.590;2023-05-16T14:55:25;9.15;;;5.68;;
16727;SDS011;8482;54.396;18.590;2023-05-16T14:57:51;10.85;;;5.72;;
16727;SDS011;8482;54.396;18.590;2023-05-16T15:00:21;13.30;;;6.90;;
16727;SDS011;8482;54.396;18.590;2023-05-16T15:02:49;9.52;;;6.20;;
16727;SDS011;8482;54.396;18.590;2023-05-16T15:05:16;10.98;;;6.35;;
16727;SDS011;8482;54.396;18.590;2023-05-16T15:07:42;8.07;;;5.32;;
16727;SDS011;8482;54.396;18.590;2023-05-16T15:10:08;9.98;;;5.38;;
16727;SDS011;8482;54.396;18.590;2023-05-16T15:12:35;8.38;;;5.40;;
16727;SDS011;8482;54.396;18.590;2023-05-16T15:15:04;8.48;;;4.90;;
16727;SDS011;8482;54.396;18.590;2023-05-16T15:17:34;9.43;;;5.60;;
16727;SDS011;8482;54.396;18.590;2023-05-16T15:19:59;6.60;;;4.43;;
16727;SDS011;8482;54.396;18.590;2023-05-16T15:22:25;10.45;;;4.63;;
16727;SDS011;8482;54.396;18.590;2023-05-16T15:24:51;10.15;;;5.25;;
16727;SDS011;8482;54.396;18.590;2023-05-16T15:27:17;9.45;;;5.85;;
16727;SDS011;8482;54.396;18.590;2023-05-16T15:29:44;9.77;;;6.05;;
16727;SDS011;8482;54.396;18.590;2023-05-16T15:32:10;8.52;;;4.47;;
16727;SDS011;8482;54.396;18.590;2023-05-16T15:34:37;7.97;;;4.72;;
16727;SDS011;8482;54.396;18.590;2023-05-16T15:37:03;8.30;;;4.72;;